Ana Sayfa
METAR-TAF:

METAR-TAF

Havaalanları :

Beaumont, Teksas, Amerika Birleşik Devletleri

Enlem: 30-04-13N, Boylam: 094-12-54W, yükseklik: 10 m

Güncel hava durumu gözlemi

Rapor saat 20:15 UTC de 16 dakika önce yapıldı.
Rüzgar güneydan 10 kt ve 17 kt'a kadar ani rüzgarlar
Sıcaklık 32°C
Nem 56%
Basınç 1014 hPa
Görüş mesafesi: 16.1 km
4100 ft yükseklikte parçalı bulutlu
5500 ft yükseklikte parçalı çok bulutlu
7000 ft yükseklikte parçalı çok bulutlu

METAR: KBMT 162015Z AUTO 17010G17KT 10SM SCT041 BKN055 BKN070 32/22 A2994 RMK AO2 LTG DSNT N AND W T03170221

Saat: 14:31 (20:31 UTC)


TAF: eksik

4.000'den fazla havaalanı için hava durumu gözlemleri ve tahminleri (METAR ve TAF raporları).

Kullanılabilir istasyonlar harita üzerinde sarı ve kırmızı noktalarla gösterilir.

İstasyonun adını görmek için fareyi noktanın üzerinde gezdirin.

Sonrasında hava gözlem ve tahminlerini görmek için tıklayın.

Haritayı değiştirmek için: yaklaştırmak için siyah artı işaretli yeşil düğmeye ve uzaklaştırmak için de eksi işaretli düğmeye hızla tıklayın; bitişik haritalar için yeşil okları kullanın.


METAR-TAF: